Time;durP1;ratioP1;P1;durP2;ratioP2;P2;SDS_P1;SDS_P2;PMS_P1;PMS_P2;Temp;Humidity;BMP_temperature;BMP_pressure;BME280_temperature;BME280_humidity;BME280_pressure;Samples;Min_cycle;Max_cycle;Signal;HPM_P1;HPM_P2
2020/12/26 00:01:18;;;;;;;6.38;1.35;;;6.50;82.30;;;;;;5096477;28;20669;-60
2020/12/26 00:03:45;;;;;;;3.78;1.02;;;6.50;82.30;;;;;;5095789;28;20151;-60
2020/12/26 00:06:14;;;;;;;0.43;0.43;;;6.50;82.30;;;;;;5096479;28;20112;-60
2020/12/26 00:08:41;;;;;;;5.28;2.10;;;6.60;82.40;;;;;;5096390;28;20149;-60
2020/12/26 00:11:12;;;;;;;1.17;1.00;;;6.50;82.20;;;;;;5095510;28;20047;-60
2020/12/26 00:13:38;;;;;;;9.23;1.88;;;6.60;82.30;;;;;;5096123;28;20078;-61
2020/12/26 00:16:04;;;;;;;1.17;1.08;;;6.60;82.10;;;;;;5096291;28;20028;-61
2020/12/26 00:18:31;;;;;;;4.90;1.58;;;6.70;82.10;;;;;;5095415;28;20044;-60
2020/12/26 00:20:57;;;;;;;2.60;1.20;;;6.70;82.00;;;;;;5095946;28;20387;-61
2020/12/26 00:23:22;;;;;;;1.45;0.93;;;6.70;81.90;;;;;;5095826;28;20032;-61
2020/12/26 00:25:48;;;;;;;2.20;0.80;;;6.70;81.70;;;;;;5095134;28;20031;-60
2020/12/26 00:28:15;;;;;;;2.55;1.00;;;6.70;81.50;;;;;;5096079;28;20032;-60
2020/12/26 00:30:41;;;;;;;6.32;1.38;;;6.70;81.50;;;;;;5095328;28;20059;-60
2020/12/26 00:33:07;;;;;;;0.50;0.50;;;6.70;81.40;;;;;;5095740;28;20032;-60
2020/12/26 00:35:33;;;;;;;3.38;0.90;;;6.70;81.40;;;;;;5095699;28;20372;-60
2020/12/26 00:37:58;;;;;;;0.30;0.30;;;6.70;81.30;;;;;;5094828;28;20028;-60
2020/12/26 00:40:24;;;;;;;0.43;0.43;;;6.70;81.30;;;;;;5095639;28;20036;-60
2020/12/26 00:42:50;;;;;;;0.65;0.65;;;6.70;81.30;;;;;;5095649;28;20024;-60
2020/12/26 00:45:15;;;;;;;0.98;0.98;;;6.70;81.30;;;;;;5094808;28;20090;-60
2020/12/26 00:47:42;;;;;;;7.15;1.42;;;6.70;81.10;;;;;;5094086;28;20028;-60
2020/12/26 00:50:08;;;;;;;1.27;0.93;;;6.60;81.10;;;;;;5094178;28;20032;-60
2020/12/26 00:52:34;;;;;;;0.75;0.75;;;6.60;81.10;;;;;;5093366;28;20020;-60
2020/12/26 00:55:00;;;;;;;0.85;0.68;;;6.60;81.10;;;;;;5095078;28;20392;-60
2020/12/26 00:57:26;;;;;;;1.70;1.05;;;6.60;81.10;;;;;;5094113;28;20066;-60
2020/12/26 00:59:52;;;;;;;1.38;0.90;;;6.60;81.20;;;;;;5094556;28;20032;-60
2020/12/26 01:02:18;;;;;;;3.58;1.25;;;6.60;81.20;;;;;;5094240;28;20411;-60
2020/12/26 01:04:50;;;;;;;5.93;1.02;;;6.60;81.10;;;;;;5093291;28;20070;-60
2020/12/26 01:07:15;;;;;;;0.98;0.55;;;6.60;81.20;;;;;;5094424;28;20501;-60
2020/12/26 01:09:41;;;;;;;0.57;0.50;;;6.60;81.20;;;;;;5094977;28;20105;-60
2020/12/26 01:12:06;;;;;;;0.85;0.80;;;6.60;81.30;;;;;;5094982;28;20468;-60
2020/12/26 01:14:32;;;;;;;2.85;1.17;;;6.50;81.30;;;;;;5094443;28;20054;-60
2020/12/26 01:16:58;;;;;;;3.42;1.27;;;6.50;81.30;;;;;;5094958;28;20051;-60
2020/12/26 01:19:24;;;;;;;0.50;0.50;;;6.50;81.20;;;;;;5094985;28;20040;-60
2020/12/26 01:21:53;;;;;;;1.05;0.93;;;6.50;81.20;;;;;;5094040;28;20036;-60
2020/12/26 01:24:19;;;;;;;1.67;1.13;;;6.50;81.20;;;;;;5095088;28;20032;-60
2020/12/26 01:26:46;;;;;;;1.23;0.90;;;6.50;81.10;;;;;;5094722;28;20540;-60
2020/12/26 01:29:12;;;;;;;3.50;1.60;;;6.40;81.20;;;;;;5093714;28;20494;-60
2020/12/26 01:31:38;;;;;;;0.82;0.82;;;6.40;81.40;;;;;;5094585;28;20062;-60
2020/12/26 01:34:03;;;;;;;4.00;1.00;;;6.40;81.50;;;;;;5093649;28;20079;-60
2020/12/26 01:36:29;;;;;;;2.80;1.02;;;6.40;81.50;;;;;;5094583;28;20039;-60
2020/12/26 01:38:55;;;;;;;0.80;0.80;;;6.30;81.50;;;;;;5094724;28;20052;-60
2020/12/26 01:41:20;;;;;;;3.50;1.60;;;6.30;81.50;;;;;;5092465;28;20056;-60
2020/12/26 01:44:01;;;;;;;1.55;1.13;;;6.30;81.60;;;;;;5094357;28;20156;-60
2020/12/26 01:46:31;;;;;;;2.05;1.48;;;6.30;81.70;;;;;;5094313;28;20028;-60
2020/12/26 01:48:59;;;;;;;5.25;1.73;;;6.30;81.70;;;;;;5093514;28;20038;-60
2020/12/26 01:51:26;;;;;;;3.20;0.65;;;6.20;82.40;;;;;;5094340;28;20032;-60
2020/12/26 01:53:53;;;;;;;1.27;1.15;;;6.30;81.80;;;;;;5094140;28;20072;-60
2020/12/26 01:56:19;;;;;;;1.83;1.17;;;6.30;81.90;;;;;;5093434;28;20034;-60
2020/12/26 01:58:45;;;;;;;0.98;0.80;;;6.30;81.90;;;;;;5094156;28;20469;-60
2020/12/26 02:01:11;;;;;;;1.30;0.85;;;6.20;81.80;;;;;;5093955;28;20024;-60
2020/12/26 02:03:39;;;;;;;2.25;0.95;;;6.30;81.90;;;;;;5093351;28;20055;-60
2020/12/26 02:06:08;;;;;;;2.80;1.42;;;6.30;81.90;;;;;;5094216;28;20028;-60
2020/12/26 02:08:36;;;;;;;3.85;1.52;;;6.30;81.90;;;;;;5093751;28;20047;-60
2020/12/26 02:11:06;;;;;;;2.17;1.15;;;6.20;81.90;;;;;;5093389;28;20065;-60
2020/12/26 02:13:34;;;;;;;1.27;1.17;;;6.30;82.00;;;;;;5093576;28;20523;-60
2020/12/26 02:16:13;;;;;;;4.82;1.20;;;6.20;82.10;;;;;;5093491;28;20039;-60
2020/12/26 02:18:39;;;;;;;2.50;1.17;;;6.20;82.20;;;;;;5093658;28;20364;-60
2020/12/26 02:21:05;;;;;;;1.65;1.40;;;6.20;82.30;;;;;;5093786;28;20047;-60
2020/12/26 02:23:32;;;;;;;1.95;1.08;;;6.20;82.30;;;;;;5092934;28;20106;-60
2020/12/26 02:25:58;;;;;;;0.85;0.68;;;6.20;82.40;;;;;;5093615;28;20034;-60
2020/12/26 02:28:25;;;;;;;1.00;0.93;;;6.20;82.50;;;;;;5093509;28;20122;-60
2020/12/26 02:30:51;;;;;;;0.93;0.88;;;6.20;82.50;;;;;;5092555;28;20490;-60
2020/12/26 02:33:17;;;;;;;0.80;0.80;;;6.20;82.40;;;;;;5093675;28;20040;-60
2020/12/26 02:35:46;;;;;;;0.55;0.55;;;6.20;82.40;;;;;;5093438;28;20022;-60
2020/12/26 02:38:11;;;;;;;1.60;1.10;;;6.30;82.50;;;;;;5092820;28;20031;-60
2020/12/26 02:40:37;;;;;;;2.30;0.90;;;6.30;82.60;;;;;;5093511;28;20475;-60
2020/12/26 02:43:07;;;;;;;3.63;0.98;;;6.20;82.60;;;;;;5093054;28;20035;-60
2020/12/26 02:45:33;;;;;;;0.52;0.52;;;6.30;82.70;;;;;;5092682;28;20564;-60
2020/12/26 02:47:58;;;;;;;1.23;0.65;;;6.30;82.70;;;;;;5093292;28;20109;-60
2020/12/26 02:50:24;;;;;;;5.47;1.15;;;6.30;82.80;;;;;;5093313;28;20032;-60
2020/12/26 02:52:49;;;;;;;1.75;0.82;;;6.30;82.70;;;;;;5092344;28;20028;-60
2020/12/26 02:55:15;;;;;;;0.80;0.80;;;6.30;82.70;;;;;;5093234;28;20036;-60
2020/12/26 02:57:40;;;;;;;0.60;0.60;;;6.30;82.70;;;;;;5093099;28;20028;-60
2020/12/26 03:00:06;;;;;;;1.50;0.80;;;6.30;82.70;;;;;;5092171;28;20136;-60
2020/12/26 03:02:32;;;;;;;1.15;1.02;;;6.30;82.80;;;;;;5093204;28;20065;-60
2020/12/26 03:04:57;;;;;;;0.60;0.60;;;6.30;82.80;;;;;;5093106;28;20414;-60
2020/12/26 03:07:23;;;;;;;0.60;0.60;;;6.40;82.90;;;;;;5092420;28;20158;-60
2020/12/26 03:09:48;;;;;;;3.78;0.40;;;6.40;82.80;;;;;;5092723;28;20472;-60
2020/12/26 03:12:14;;;;;;;0.40;0.40;;;6.40;82.90;;;;;;5093040;28;20047;-60
2020/12/26 03:14:40;;;;;;;2.92;0.80;;;6.40;82.90;;;;;;5092049;28;20399;-60
2020/12/26 03:17:05;;;;;;;2.38;0.80;;;6.30;82.90;;;;;;5092863;28;20077;-60
2020/12/26 03:19:31;;;;;;;0.75;0.75;;;6.40;83.10;;;;;;5092291;28;20028;-60
2020/12/26 03:21:56;;;;;;;0.68;0.68;;;6.40;83.10;;;;;;5092568;28;20361;-60
2020/12/26 03:24:22;;;;;;;1.65;0.77;;;6.40;83.20;;;;;;5092927;28;20043;-60
2020/12/26 03:26:47;;;;;;;0.70;0.70;;;6.30;83.30;;;;;;5091917;28;20020;-60
2020/12/26 03:29:13;;;;;;;0.70;0.70;;;6.40;83.30;;;;;;5096558;28;20028;-60
2020/12/26 03:31:39;;;;;;;0.63;0.63;;;6.40;83.30;;;;;;5097286;28;20062;-60
2020/12/26 03:34:04;;;;;;;0.70;0.70;;;6.30;83.30;;;;;;5095923;28;20044;-60
2020/12/26 03:36:30;;;;;;;4.30;1.02;;;6.30;83.40;;;;;;5097027;28;20020;-60
2020/12/26 03:38:55;;;;;;;0.82;0.60;;;6.40;83.50;;;;;;5096937;28;20032;-60
2020/12/26 03:41:21;;;;;;;3.10;0.75;;;6.30;83.50;;;;;;5095878;28;20047;-60
2020/12/26 03:43:46;;;;;;;3.00;0.80;;;6.40;83.60;;;;;;5096530;28;20082;-60
2020/12/26 03:46:12;;;;;;;2.47;0.73;;;6.30;83.60;;;;;;5096596;28;20028;-60
2020/12/26 03:48:38;;;;;;;0.32;0.32;;;6.40;83.60;;;;;;5085347;28;20024;-61
2020/12/26 03:51:03;;;;;;;0.98;0.60;;;6.40;83.70;;;;;;5093848;28;20024;-60
2020/12/26 03:53:29;;;;;;;1.75;0.90;;;6.40;83.60;;;;;;5090335;28;20024;-60
2020/12/26 03:55:55;;;;;;;3.42;0.77;;;6.30;83.50;;;;;;5079519;28;20032;-60
2020/12/26 03:58:20;;;;;;;1.38;1.25;;;6.30;83.50;;;;;;5086194;28;20028;-60
2020/12/26 04:00:46;;;;;;;0.70;0.70;;;6.30;83.60;;;;;;5078095;28;20033;-60
2020/12/26 04:03:11;;;;;;;0.47;0.47;;;6.30;83.60;;;;;;5095937;28;20031;-60
2020/12/26 04:05:37;;;;;;;1.02;0.77;;;6.30;83.60;;;;;;5096333;28;20027;-60
2020/12/26 04:08:02;;;;;;;1.05;0.50;;;6.40;83.60;;;;;;5075946;28;20468;-60
2020/12/26 04:10:28;;;;;;;0.30;0.30;;;6.40;83.60;;;;;;5075319;28;20043;-60
2020/12/26 04:12:54;;;;;;;1.75;1.08;;;6.40;83.60;;;;;;5079240;28;20055;-60
2020/12/26 04:15:19;;;;;;;0.63;0.63;;;6.40;83.60;;;;;;5096362;28;20039;-60
2020/12/26 04:17:45;;;;;;;0.50;0.50;;;6.30;83.60;;;;;;5095467;28;20031;-60
2020/12/26 04:20:11;;;;;;;0.40;0.40;;;6.30;83.60;;;;;;5096008;28;20032;-60
2020/12/26 04:22:36;;;;;;;3.33;0.95;;;6.30;83.60;;;;;;5096008;28;20039;-60
2020/12/26 04:25:02;;;;;;;5.68;0.95;;;6.30;83.60;;;;;;5075688;28;20056;-60
2020/12/26 04:27:28;;;;;;;0.52;0.52;;;6.30;83.60;;;;;;5076085;28;20035;-60
2020/12/26 04:29:53;;;;;;;2.67;0.63;;;6.30;83.70;;;;;;5077909;28;20016;-60
2020/12/26 04:32:19;;;;;;;0.32;0.32;;;6.20;83.70;;;;;;5095833;28;20415;-60
2020/12/26 04:34:45;;;;;;;2.15;0.80;;;6.20;83.80;;;;;;5095767;28;20051;-61
2020/12/26 04:37:11;;;;;;;2.40;0.75;;;6.20;83.90;;;;;;5095214;28;20715;-60
2020/12/26 04:39:37;;;;;;;3.38;0.90;;;6.20;83.90;;;;;;5094787;28;20162;-60
2020/12/26 04:42:05;;;;;;;6.95;1.10;;;6.10;84.00;;;;;;5095544;28;20020;-60
2020/12/26 04:44:30;;;;;;;0.82;0.70;;;6.20;84.10;;;;;;5094871;28;20044;-60
2020/12/26 04:46:59;;;;;;;1.05;0.85;;;6.10;84.10;;;;;;5095370;28;20038;-60
2020/12/26 04:49:29;;;;;;;0.68;0.68;;;6.10;84.20;;;;;;5095518;28;20514;-60
2020/12/26 04:51:57;;;;;;;3.92;1.05;;;6.10;84.20;;;;;;5094583;28;20122;-60
2020/12/26 04:54:25;;;;;;;1.17;0.60;;;6.20;84.30;;;;;;5095385;28;20044;-60
2020/12/26 04:56:55;;;;;;;1.75;0.88;;;6.10;84.30;;;;;;5095217;28;20502;-60
2020/12/26 04:59:22;;;;;;;1.58;1.48;;;6.10;84.30;;;;;;5088034;28;20472;-60
2020/12/26 05:01:49;;;;;;;1.92;1.05;;;6.10;84.30;;;;;;5088010;28;20028;-60
2020/12/26 05:04:15;;;;;;;1.75;1.13;;;6.10;84.40;;;;;;5095059;28;20028;-60
2020/12/26 05:06:52;;;;;;;1.00;0.88;;;6.10;84.30;;;;;;5094558;28;20052;-60
2020/12/26 05:09:19;;;;;;;0.75;0.50;;;6.10;84.30;;;;;;5094809;28;20073;-60
2020/12/26 05:11:57;;;;;;;2.50;1.00;;;6.00;84.20;;;;;;5095125;28;20028;-60
2020/12/26 05:14:27;;;;;;;4.13;0.90;;;6.10;84.40;;;;;;5093975;28;20058;-60
2020/12/26 05:16:53;;;;;;;7.05;1.33;;;6.00;85.00;;;;;;5095197;28;20056;-60
2020/12/26 05:19:20;;;;;;;29.50;1.42;;;6.00;84.30;;;;;;5094079;28;20071;-60
2020/12/26 05:21:47;;;;;;;0.40;0.40;;;6.00;84.40;;;;;;5094880;28;20077;-60
2020/12/26 05:24:17;;;;;;;1.60;0.77;;;6.00;84.30;;;;;;5094904;28;20382;-60
2020/12/26 05:26:48;;;;;;;1.10;0.95;;;6.00;84.30;;;;;;5094224;28;20062;-60
2020/12/26 05:29:15;;;;;;;3.53;1.13;;;6.00;84.20;;;;;;5094667;28;20032;-60
2020/12/26 05:31:57;;;;;;;1.45;0.90;;;6.10;84.20;;;;;;5094713;28;20020;-60
2020/12/26 05:34:30;;;;;;;0.65;0.65;;;6.10;84.20;;;;;;5093952;28;20383;-60
2020/12/26 05:37:00;;;;;;;1.08;0.85;;;6.00;84.80;;;;;;5094566;28;20024;-60
2020/12/26 05:39:38;;;;;;;3.47;1.38;;;6.00;84.30;;;;;;5094575;28;20028;-60
2020/12/26 05:42:05;;;;;;;1.15;1.05;;;6.00;84.40;;;;;;5093859;28;20060;-60
2020/12/26 05:44:35;;;;;;;1.17;1.05;;;6.00;84.50;;;;;;5093992;28;20441;-60
2020/12/26 05:47:03;;;;;;;4.30;1.10;;;6.00;84.60;;;;;;5094597;28;20024;-60
2020/12/26 05:49:36;;;;;;;8.30;1.40;;;5.90;84.70;;;;;;5093817;28;20387;-60
2020/12/26 05:52:12;;;;;;;1.17;1.08;;;5.90;84.80;;;;;;5080569;28;20028;-60
2020/12/26 05:54:47;;;;;;;1.95;1.25;;;5.90;85.00;;;;;;5093523;28;20071;-60
2020/12/26 05:57:15;;;;;;;2.80;1.35;;;5.90;85.10;;;;;;5087980;28;20025;-60
2020/12/26 05:59:48;;;;;;;3.08;1.40;;;5.90;85.20;;;;;;5074070;28;20111;-60
2020/12/26 06:02:18;;;;;;;2.75;1.70;;;5.90;85.30;;;;;;5075364;28;20450;-60
2020/12/26 06:04:52;;;;;;;3.00;1.08;;;5.90;85.30;;;;;;5094041;28;20494;-60
2020/12/26 06:07:21;;;;;;;4.10;1.45;;;5.90;85.40;;;;;;5093873;28;20056;-60
2020/12/26 06:09:51;;;;;;;3.40;2.00;;;5.80;85.40;;;;;;5093562;28;20085;-60
2020/12/26 06:12:18;;;;;;;3.70;1.65;;;5.80;85.50;;;;;;5093853;28;20036;-60
2020/12/26 06:14:46;;;;;;;1.30;1.20;;;5.80;85.60;;;;;;5093706;28;20046;-61
2020/12/26 06:17:13;;;;;;;2.83;1.70;;;5.80;85.60;;;;;;5093226;28;20035;-60
2020/12/26 06:19:42;;;;;;;5.55;1.98;;;5.90;85.70;;;;;;5093653;28;20016;-60
2020/12/26 06:22:08;;;;;;;3.25;1.98;;;5.80;85.60;;;;;;5093686;28;20028;-60
2020/12/26 06:24:35;;;;;;;4.55;2.00;;;5.80;85.60;;;;;;5092832;28;20052;-60
2020/12/26 06:27:05;;;;;;;1.80;1.23;;;5.80;85.70;;;;;;5093765;28;20107;-60
2020/12/26 06:29:33;;;;;;;3.03;1.85;;;5.90;85.80;;;;;;5092880;28;20028;-60
2020/12/26 06:32:01;;;;;;;3.53;1.67;;;5.80;85.80;;;;;;5093515;28;20467;-60
2020/12/26 06:34:27;;;;;;;4.18;2.00;;;5.90;86.00;;;;;;5093259;28;20035;-60
2020/12/26 06:36:56;;;;;;;7.40;2.20;;;5.90;86.00;;;;;;5092776;28;20472;-60
2020/12/26 06:39:26;;;;;;;2.20;1.67;;;5.80;86.00;;;;;;5093395;28;20036;-60
2020/12/26 06:42:24;;;;;;;5.00;2.20;;;5.90;86.00;;;;;;5079959;28;20039;-60
2020/12/26 06:44:50;;;;;;;3.45;2.30;;;5.90;86.00;;;;;;5066762;28;20475;-60
2020/12/26 06:47:36;;;;;;;5.40;2.70;;;5.90;86.00;;;;;;5093255;28;20035;-60
2020/12/26 06:50:34;;;;;;;2.67;1.65;;;5.90;86.10;;;;;;5093302;28;20056;-60
2020/12/26 06:53:01;;;;;;;4.65;2.70;;;5.90;86.10;;;;;;5050055;28;20543;-60
2020/12/26 06:55:42;;;;;;;7.32;2.63;;;5.90;86.20;;;;;;5092870;28;20827;-60
2020/12/26 06:58:08;;;;;;;1.80;1.58;;;5.90;86.20;;;;;;5082011;28;20036;-60
2020/12/26 07:00:34;;;;;;;2.80;1.50;;;5.90;86.20;;;;;;5089566;28;20119;-60
2020/12/26 07:03:28;;;;;;;2.15;1.65;;;6.00;86.20;;;;;;5092694;28;20070;-60
2020/12/26 07:05:54;;;;;;;;;;;6.00;86.20;;;;;;5092541;28;20023;-60
2020/12/26 07:08:38;;;;;;;1.83;1.15;;;6.00;86.00;;;;;;5093208;28;19908;-60
2020/12/26 07:11:22;;;;;;;2.47;2.03;;;6.10;86.00;;;;;;5092996;28;20028;-60
2020/12/26 07:13:50;;;;;;;7.32;2.65;;;6.10;86.10;;;;;;5092013;28;20055;-60
2020/12/26 07:16:38;;;;;;;5.82;2.38;;;6.00;86.10;;;;;;5092643;28;20016;-60
2020/12/26 07:19:26;;;;;;;1.50;1.33;;;6.00;86.10;;;;;;5092008;28;20032;-60
2020/12/26 07:21:54;;;;;;;5.03;2.50;;;6.10;86.20;;;;;;5092841;28;20380;-60
2020/12/26 07:24:30;;;;;;;3.30;2.60;;;6.10;86.20;;;;;;5092682;28;20024;-60
2020/12/26 07:27:19;;;;;;;4.47;1.83;;;6.10;86.20;;;;;;5092121;28;20543;-60
2020/12/26 07:29:49;;;;;;;4.63;2.80;;;6.10;86.20;;;;;;5092558;28;20514;-60
2020/12/26 07:32:43;;;;;;;5.25;1.58;;;6.20;86.20;;;;;;5092683;28;20036;-60
2020/12/26 07:35:11;;;;;;;5.97;2.00;;;6.10;86.20;;;;;;5079938;28;20040;-59
2020/12/26 07:37:38;;;;;;;6.13;2.70;;;6.10;86.10;;;;;;5086292;28;20500;-59
2020/12/26 07:40:04;;;;;;;7.30;2.67;;;6.10;86.20;;;;;;5085073;28;20338;-61
2020/12/26 07:42:31;;;;;;;8.32;2.67;;;6.10;86.40;;;;;;5081563;28;20032;-60
2020/12/26 07:44:57;;;;;;;5.30;1.80;;;6.10;86.50;;;;;;5080139;28;20044;-60
2020/12/26 07:47:23;;;;;;;4.60;2.03;;;6.10;86.60;;;;;;5079975;28;20043;-60
2020/12/26 07:49:59;;;;;;;2.85;2.03;;;6.10;86.60;;;;;;5071754;28;20426;-61
2020/12/26 07:52:25;;;;;;;5.10;2.22;;;6.10;86.70;;;;;;5080950;28;20127;-60
2020/12/26 07:55:01;;;;;;;0.80;0.80;;;6.20;86.80;;;;;;5080038;28;20120;-60
2020/12/26 07:57:27;;;;;;;2.55;1.60;;;6.10;86.70;;;;;;5077174;28;20032;-60
2020/12/26 07:59:54;;;;;;;7.60;2.60;;;6.20;86.60;;;;;;5071616;28;20365;-60
2020/12/26 08:02:20;;;;;;;1.92;0.52;;;6.20;86.60;;;;;;5070786;28;20025;-60
2020/12/26 08:04:46;;;;;;;2.15;1.77;;;6.10;86.50;;;;;;5079831;28;20039;-60
2020/12/26 08:07:17;;;;;;;7.70;1.92;;;6.20;86.60;;;;;;5082179;28;20166;-60
2020/12/26 08:09:50;;;;;;;2.58;1.30;;;6.20;86.60;;;;;;5086669;28;20036;-60
2020/12/26 08:12:16;;;;;;;6.35;2.33;;;6.20;86.50;;;;;;5081941;28;20025;-60
2020/12/26 08:14:42;;;;;;;1.33;1.23;;;6.20;86.40;;;;;;5087620;28;20032;-60
2020/12/26 08:17:09;;;;;;;8.07;1.95;;;6.20;86.40;;;;;;5086398;28;20021;-60
2020/12/26 08:19:35;;;;;;;3.53;2.55;;;6.20;86.40;;;;;;5090148;28;20052;-60
2020/12/26 08:22:02;;;;;;;5.28;2.22;;;6.20;86.40;;;;;;5087944;28;20062;-60
2020/12/26 08:24:28;;;;;;;3.35;1.52;;;6.20;86.50;;;;;;5088112;28;20028;-60
2020/12/26 08:26:56;;;;;;;3.15;0.98;;;6.20;86.50;;;;;;5090391;28;20519;-61
2020/12/26 08:29:29;;;;;;;1.75;1.55;;;6.20;86.60;;;;;;5085290;28;20071;-60
2020/12/26 08:32:01;;;;;;;5.25;2.05;;;6.20;87.30;;;;;;5078061;28;20043;-60
2020/12/26 08:34:43;;;;;;;2.88;1.63;;;6.20;86.70;;;;;;5078410;28;20060;-60
2020/12/26 08:37:18;;;;;;;2.97;1.73;;;6.20;86.80;;;;;;5080065;28;20119;-60
2020/12/26 08:39:45;;;;;;;5.25;2.20;;;6.20;86.90;;;;;;5092584;28;20041;-60
2020/12/26 08:42:19;;;;;;;2.83;1.38;;;6.20;86.90;;;;;;5081299;28;20070;-60
2020/12/26 08:44:45;;;;;;;5.18;2.10;;;6.30;87.10;;;;;;5081191;28;20063;-60
2020/12/26 08:47:11;;;;;;;2.85;1.98;;;6.20;87.00;;;;;;5081902;28;20024;-60
2020/12/26 08:49:44;;;;;;;2.10;1.60;;;6.30;87.10;;;;;;5079829;28;20107;-60
2020/12/26 08:52:11;;;;;;;6.50;1.80;;;6.20;87.00;;;;;;5081882;28;20078;-60
2020/12/26 08:54:37;;;;;;;3.83;1.92;;;6.20;87.00;;;;;;5080008;28;20435;-60
2020/12/26 08:57:17;;;;;;;3.35;1.98;;;6.30;87.10;;;;;;5092951;28;20080;-60
2020/12/26 08:59:43;;;;;;;3.20;1.90;;;6.30;87.80;;;;;;5075084;28;20036;-60
2020/12/26 09:02:11;;;;;;;12.27;2.40;;;6.30;87.10;;;;;;5090619;28;20039;-60
2020/12/26 09:04:37;;;;;;;3.42;1.75;;;6.30;87.10;;;;;;5094515;28;20059;-60
2020/12/26 09:07:18;;;;;;;4.03;2.05;;;6.30;87.20;;;;;;5095407;28;20055;-60
2020/12/26 09:09:44;;;;;;;5.97;1.80;;;6.30;87.20;;;;;;5095206;28;20472;-60
2020/12/26 09:12:09;;;;;;;2.60;1.80;;;6.40;87.30;;;;;;5094451;28;20043;-60
2020/12/26 09:14:35;;;;;;;5.45;1.80;;;6.30;87.30;;;;;;5095073;28;20124;-60
2020/12/26 09:17:02;;;;;;;8.50;2.10;;;6.40;87.30;;;;;;5095003;28;20024;-60
2020/12/26 09:19:42;;;;;;;4.32;1.80;;;6.40;87.40;;;;;;5094310;28;20035;-60
2020/12/26 09:22:08;;;;;;;2.63;1.63;;;6.40;87.40;;;;;;5095106;28;20536;-60
2020/12/26 09:24:34;;;;;;;5.05;2.00;;;6.40;87.40;;;;;;5094800;28;20162;-60
2020/12/26 09:26:59;;;;;;;1.17;1.02;;;6.40;87.50;;;;;;5093823;28;20114;-60
2020/12/26 09:29:25;;;;;;;4.85;2.20;;;6.40;87.50;;;;;;5094632;28;20069;-60
2020/12/26 09:31:52;;;;;;;5.55;2.47;;;6.40;87.50;;;;;;5094664;28;20048;-61
2020/12/26 09:34:25;;;;;;;8.90;1.80;;;6.50;87.50;;;;;;5093930;28;20047;-60
2020/12/26 09:37:08;;;;;;;6.05;2.75;;;6.50;87.50;;;;;;5094629;28;20028;-60
2020/12/26 09:39:37;;;;;;;9.43;2.15;;;6.50;87.40;;;;;;5093747;28;20036;-60
2020/12/26 09:42:04;;;;;;;3.70;2.22;;;6.50;87.20;;;;;;5094487;28;20020;-60
2020/12/26 09:44:29;;;;;;;7.43;3.03;;;6.50;87.20;;;;;;5093939;28;20475;-59
2020/12/26 09:47:00;;;;;;;7.82;2.30;;;6.50;87.30;;;;;;5093963;28;20047;-60
2020/12/26 09:49:25;;;;;;;4.15;2.47;;;6.60;87.50;;;;;;5094529;28;20036;-60
2020/12/26 09:51:51;;;;;;;1.48;0.93;;;6.50;87.50;;;;;;5094298;28;20027;-60
2020/12/26 09:54:17;;;;;;;5.85;2.50;;;6.50;87.60;;;;;;5093462;28;20091;-60
2020/12/26 09:56:43;;;;;;;4.88;2.55;;;6.50;87.80;;;;;;5094029;28;20039;-60
2020/12/26 09:59:08;;;;;;;2.97;1.98;;;6.60;87.90;;;;;;5074960;28;20025;-60
2020/12/26 10:01:39;;;;;;;6.43;2.33;;;6.60;87.90;;;;;;5073147;28;20537;-60
2020/12/26 10:04:05;;;;;;;2.80;1.98;;;6.60;88.00;;;;;;5086762;28;20027;-60
2020/12/26 10:06:31;;;;;;;4.97;2.25;;;6.60;88.00;;;;;;5073224;28;20052;-60
2020/12/26 10:08:56;;;;;;;3.47;1.67;;;6.60;88.00;;;;;;5074117;28;20067;-60
2020/12/26 10:11:22;;;;;;;4.70;2.50;;;6.60;88.00;;;;;;5074526;28;20024;-60
2020/12/26 10:13:48;;;;;;;6.90;1.85;;;6.60;88.20;;;;;;5074415;28;20467;-60
2020/12/26 10:16:17;;;;;;;5.20;2.40;;;6.60;88.10;;;;;;5074628;28;20479;-61
2020/12/26 10:18:44;;;;;;;3.90;1.77;;;6.60;88.10;;;;;;5090051;28;20039;-61
2020/12/26 10:21:13;;;;;;;7.05;2.05;;;6.70;88.20;;;;;;5085754;28;20101;-61
2020/12/26 10:23:39;;;;;;;3.45;1.73;;;6.70;88.20;;;;;;5091551;28;20028;-60
2020/12/26 10:26:06;;;;;;;1.17;0.95;;;6.70;88.10;;;;;;5091206;28;20082;-61
2020/12/26 10:28:33;;;;;;;13.90;2.42;;;6.80;88.10;;;;;;5091999;28;20020;-59
2020/12/26 10:30:59;;;;;;;1.52;1.42;;;6.70;88.10;;;;;;5089971;28;20468;-60
2020/12/26 10:33:25;;;;;;;6.43;2.25;;;6.80;88.10;;;;;;5083057;28;20066;-60
2020/12/26 10:35:51;;;;;;;3.72;2.00;;;6.90;88.00;;;;;;5076057;28;20039;-60
2020/12/26 10:38:16;;;;;;;4.55;1.73;;;6.90;87.80;;;;;;5090649;28;20031;-61
2020/12/26 10:40:42;;;;;;;3.60;1.55;;;7.00;87.60;;;;;;5078437;28;20039;-61
2020/12/26 10:43:08;;;;;;;1.92;1.42;;;6.90;87.50;;;;;;5081160;28;20047;-61
2020/12/26 10:45:33;;;;;;;3.90;1.90;;;7.00;87.60;;;;;;5075953;28;20123;-61
2020/12/26 10:47:59;;;;;;;5.28;1.45;;;7.00;87.70;;;;;;5079025;28;20074;-61
2020/12/26 10:50:24;;;;;;;3.00;1.65;;;7.00;87.80;;;;;;5075923;28;20028;-61
2020/12/26 10:52:50;;;;;;;6.53;1.40;;;7.00;87.90;;;;;;5073270;28;20037;-61
2020/12/26 10:55:16;;;;;;;3.67;1.70;;;7.00;88.10;;;;;;5078417;28;20037;-61
2020/12/26 10:57:43;;;;;;;5.50;2.10;;;6.90;88.20;;;;;;5072442;28;20032;-61
2020/12/26 11:00:13;;;;;;;4.18;1.70;;;6.90;88.40;;;;;;5071636;28;20032;-61
2020/12/26 11:02:39;;;;;;;4.72;1.75;;;6.90;88.40;;;;;;5071977;28;20039;-61
2020/12/26 11:05:05;;;;;;;4.75;1.70;;;6.90;88.50;;;;;;5070951;28;20196;-61
2020/12/26 11:07:32;;;;;;;6.43;1.75;;;7.00;88.70;;;;;;5077720;28;20028;-61
2020/12/26 11:09:58;;;;;;;6.18;1.92;;;6.90;88.80;;;;;;5071897;28;20391;-61
2020/12/26 11:12:24;;;;;;;1.45;1.33;;;7.00;88.90;;;;;;5074724;28;20142;-61
2020/12/26 11:14:49;;;;;;;4.18;2.22;;;7.00;89.00;;;;;;5071470;28;20040;-61
2020/12/26 11:17:15;;;;;;;4.80;2.00;;;6.90;89.00;;;;;;5082742;28;20054;-61
2020/12/26 11:19:41;;;;;;;6.10;2.08;;;6.90;89.10;;;;;;5077286;28;20111;-61
2020/12/26 11:22:06;;;;;;;4.00;1.52;;;6.90;89.00;;;;;;5086582;28;20085;-61
2020/12/26 11:24:32;;;;;;;3.58;1.80;;;6.90;89.20;;;;;;5076257;28;20032;-61
2020/12/26 11:26:58;;;;;;;8.63;1.85;;;6.90;89.30;;;;;;5088698;28;20039;-61
2020/12/26 11:29:23;;;;;;;2.78;1.77;;;7.00;89.30;;;;;;5086950;28;20040;-61
2020/12/26 11:31:49;;;;;;;5.05;2.22;;;7.00;89.30;;;;;;5089530;28;20111;-61
2020/12/26 11:34:15;;;;;;;7.28;1.63;;;7.00;89.30;;;;;;5086634;28;20035;-61
2020/12/26 11:36:41;;;;;;;4.85;1.95;;;7.00;89.30;;;;;;5089471;28;20447;-60
2020/12/26 11:39:08;;;;;;;8.27;1.35;;;7.00;89.30;;;;;;5076342;28;20043;-61
2020/12/26 11:41:34;;;;;;;6.95;2.33;;;7.00;89.30;;;;;;5081782;28;20391;-61
2020/12/26 11:44:00;;;;;;;6.18;1.90;;;7.10;89.40;;;;;;5079104;28;20128;-61
2020/12/26 11:46:26;;;;;;;4.25;2.20;;;7.00;89.30;;;;;;5078783;28;20053;-61
2020/12/26 11:48:52;;;;;;;4.85;2.20;;;7.10;89.30;;;;;;5081627;28;20107;-60
2020/12/26 11:51:18;;;;;;;4.43;2.10;;;7.00;89.30;;;;;;5081652;28;20111;-61
2020/12/26 11:53:44;;;;;;;7.15;1.90;;;7.00;89.40;;;;;;5082263;28;20466;-60
2020/12/26 11:56:12;;;;;;;7.20;3.17;;;7.00;89.50;;;;;;5087746;28;20372;-70
2020/12/26 11:58:38;;;;;;;4.10;1.92;;;7.00;89.50;;;;;;5080077;28;20021;-61
2020/12/26 12:01:05;;;;;;;7.68;1.90;;;7.00;89.50;;;;;;5080514;28;20081;-60
2020/12/26 12:03:31;;;;;;;3.05;1.45;;;7.10;89.60;;;;;;5091824;28;20103;-60
2020/12/26 12:05:59;;;;;;;6.40;2.78;;;7.20;89.60;;;;;;5089252;28;20081;-60
2020/12/26 12:08:24;;;;;;;5.93;2.10;;;7.10;89.50;;;;;;5091571;28;20020;-60
2020/12/26 12:10:50;;;;;;;5.57;2.70;;;7.10;89.50;;;;;;5084567;28;20027;-61
2020/12/26 12:13:16;;;;;;;5.32;1.98;;;7.10;89.50;;;;;;5075071;28;20024;-60
2020/12/26 12:15:42;;;;;;;2.30;1.73;;;7.10;89.40;;;;;;5074481;28;20403;-60
2020/12/26 12:18:08;;;;;;;3.00;2.00;;;7.20;89.50;;;;;;5076299;28;20024;-60
2020/12/26 12:20:34;;;;;;;7.82;3.22;;;7.20;89.50;;;;;;5081949;28;20379;-61
2020/12/26 12:23:00;;;;;;;6.50;2.83;;;7.10;89.40;;;;;;5089251;28;20046;-60
2020/12/26 12:25:27;;;;;;;8.77;2.72;;;7.20;89.40;;;;;;5076478;28;20028;-60
2020/12/26 12:27:52;;;;;;;8.38;3.35;;;7.20;89.50;;;;;;5077653;28;20032;-61
2020/12/26 12:30:18;;;;;;;11.63;3.35;;;7.20;89.40;;;;;;5075005;28;20069;-60
2020/12/26 12:32:44;;;;;;;5.28;2.83;;;7.20;89.30;;;;;;5084364;28;20039;-60
2020/12/26 12:35:11;;;;;;;7.45;2.88;;;7.20;89.30;;;;;;5080072;28;20043;-61
2020/12/26 12:37:36;;;;;;;3.45;2.47;;;7.30;89.30;;;;;;5081829;28;20035;-61
2020/12/26 12:40:06;;;;;;;5.18;2.72;;;7.20;89.30;;;;;;5096788;28;20138;-61
2020/12/26 12:42:32;;;;;;;13.20;2.78;;;7.30;89.20;;;;;;5090311;28;20132;-62
2020/12/26 12:44:59;;;;;;;6.47;2.08;;;7.30;89.20;;;;;;5077125;28;20447;-62
2020/12/26 12:47:25;;;;;;;14.63;2.45;;;7.30;89.10;;;;;;5075043;28;20029;-60
2020/12/26 12:49:52;;;;;;;8.45;3.00;;;7.30;89.10;;;;;;5078453;28;20072;-60
2020/12/26 12:52:18;;;;;;;5.70;2.40;;;7.30;89.10;;;;;;5075264;28;20070;-62
2020/12/26 12:54:44;;;;;;;4.30;2.55;;;7.40;89.00;;;;;;5077812;28;20086;-61
2020/12/26 12:57:10;;;;;;;4.57;1.90;;;7.30;88.90;;;;;;5077775;28;20029;-62
2020/12/26 12:59:37;;;;;;;6.65;2.50;;;7.30;88.90;;;;;;5073846;28;20028;-63
2020/12/26 13:02:03;;;;;;;4.03;2.60;;;7.30;89.00;;;;;;5072438;28;20028;-62